DW3397 Weather Reports


Display with metric or nautical units.
time (UTC)temp
F
wind
direction
speed
MPH
gust
MPH
rain 1hr
in
rain 24hr
in
rain mn
in
humidity
%
barometer
mb
20210515173157 77 81 1.0 2.0 0.00 0.00 0.00 41 1017.3
20210515172415 76 135 0.0 0.0 0.00 0.00 0.00 40 1017.2
20210515171205 77 131 2.0 3.0 0.00 0.00 0.00 45 1017.7
20210515170900 78 39 4.0 5.0 0.00 0.00 0.00 42 1017.5
20210515165254 77 200 2.0 3.0 0.00 0.00 0.00 43 1017.5
20210515164248 77 163 1.0 2.0 0.00 0.00 0.00 44 1018.0
20210515163455 76 102 2.0 3.0 0.00 0.00 0.00 43 1018.0
20210515163110 76 155 1.0 2.0 0.00 0.00 0.00 47 1017.6
20210515162239 76 41 2.0 2.0 0.00 0.00 0.00 47 1017.9
20210515161239 75 113 1.0 2.0 0.00 0.00 0.00 51 1018.1
20210515160515 75 144 1.0 2.0 0.00 0.00 0.00 51 1018.0
20210515160407 75 220 3.0 3.0 0.00 0.00 0.00 49 1017.9
20210515155259 75 106 1.0 2.0 0.00 0.00 0.00 53 1018.1
20210515154229 75 114 2.0 3.0 0.00 0.00 0.00 53 1017.8
20210515153146 74 137 1.0 2.0 0.00 0.00 0.00 55 1018.1
20210515152131 73 149 1.0 2.0 0.00 0.00 0.00 58 1018.0
20210515151430 73 125 2.0 3.0 0.00 0.00 0.00 57 1018.1
20210515150514 72 139 0.0 0.0 0.00 0.00 0.00 56 1017.9
20210515145211 72 158 2.0 2.0 0.00 0.00 0.00 59 1018.0
20210515144304 72 133 0.0 0.0 0.00 0.00 0.00 58 1018.4
20210515143329 72 144 1.0 2.0 0.00 0.00 0.00 58 1018.1
20210515142132 70 123 2.0 2.0 0.00 0.00 0.00 58 1018.2
20210515141150 70 127 1.0 2.0 0.00 0.00 0.00 61 1018.5
20210515140949 69 130 3.0 3.0 0.00 0.00 0.00 57 1018.2
20210515140414 69 136 1.0 2.0 0.00 0.00 0.00 59 1018.1
20210515135243 69 158 2.0 2.0 0.00 0.00 0.00 57 1017.8
20210515134342 69 194 2.0 3.0 0.00 0.00 0.00 60 1017.9
20210515133750 67 137 1.0 2.0 0.00 0.00 0.00 62 1018.0
20210515133126 68 130 1.0 2.0 0.00 0.00 0.00 61 1017.9
20210515132309 68 96 3.0 3.0 0.00 0.00 0.00 62 1018.0
20210515131243 68 112 0.0 0.0 0.00 0.00 0.00 62 1018.1
20210515131142 68 130 1.0 2.0 0.00 0.00 0.00 63 1018.1
20210515130122 66 123 0.0 0.0 0.00 0.00 0.00 67 1018.1
20210515125314 65 132 0.0 0.0 0.00 0.00 0.00 69 1018.2
20210515124136 66 131 0.0 0.0 0.00 0.00 0.00 67 1018.1
20210515123229 64 134 0.0 0.0 0.00 0.00 0.00 70 1018.1
20210515122840 63 131 0.0 0.0 0.00 0.00 0.00 71 1018.1
20210515122307 62 130 1.0 2.0 0.00 0.00 0.00 74 1018.2
20210515121414 60 128 0.0 0.0 0.00 0.00 0.00 77 1017.7
20210515120924 59 123 0.0 0.0 0.00 0.00 0.00 81 1017.8
20210515115200 57 124 0.0 0.0 0.00 0.00 0.00 86 1017.9
20210515114122 56 95 2.0 2.0 0.00 0.00 0.00 86 1017.6
20210515113357 55 117 1.0 2.0 0.00 0.00 0.00 88 1017.7
20210515112305 55 118 0.0 0.0 0.00 0.00 0.00 90 1017.3
20210515111356 54 116 0.0 0.0 0.00 0.00 0.00 91 1017.3
20210515111311 54 113 2.0 2.0 0.00 0.00 0.00 91 1017.4
20210515110420 54 109 1.0 2.0 0.00 0.00 0.00 92 1017.2
20210515105402 54 126 0.0 0.0 0.00 0.00 0.00 92 1016.8
20210515104316 54 127 0.0 0.0 0.00 0.00 0.00 93 1017.1
20210515103125 54 129 0.0 0.0 0.00 0.00 0.00 92 1017.1
20210515102312 54 116 1.0 2.0 0.00 0.00 0.00 91 1016.8
20210515101252 55 118 0.0 0.0 0.00 0.00 0.00 91 1016.4
20210515095125 55 117 1.0 2.0 0.00 0.00 0.00 91 1016.0
20210515094325 55 124 0.0 0.0 0.00 0.00 0.00 92 1016.0
20210515093250 55 125 0.0 0.0 0.00 0.00 0.00 92 1016.0
20210515092142 55 121 0.0 0.0 0.00 0.00 0.00 91 1015.7
20210515091503 55 121 0.0 0.0 0.00 0.00 0.00 92 1015.9
20210515091343 55 121 0.0 0.0 0.00 0.00 0.00 92 1015.6
20210515090423 55 125 0.0 0.0 0.00 0.00 0.00 92 1015.6
20210515085643 55 121 1.0 2.0 0.00 0.00 0.00 92 1015.5
20210515085126 56 125 0.0 0.0 0.00 0.00 0.00 92 1015.5
20210515084204 56 120 0.0 0.0 0.00 0.00 0.00 92 1015.7
20210515083218 56 119 0.0 0.0 0.00 0.00 0.00 91 1015.4
20210515082346 56 114 1.0 2.0 0.00 0.00 0.00 91 1015.5
20210515081127 56 124 0.0 0.0 0.00 0.00 0.00 91 1015.3
20210515080533 56 124 0.0 0.0 0.00 0.00 0.00 91 1015.0
20210515075526 56 126 0.0 0.0 0.00 0.00 0.00 91 1015.3
20210515075313 56 126 0.0 0.0 0.00 0.00 0.00 91 1015.1
20210515074217 57 121 0.0 0.0 0.00 0.00 0.00 90 1015.1
20210515073325 57 125 1.0 2.0 0.00 0.00 0.00 90 1015.0
20210515072906 57 126 0.0 0.0 0.00 0.00 0.00 90 1015.0
20210515072148 57 126 0.0 0.0 0.00 0.00 0.00 90 1015.0
20210515071307 57 122 0.0 0.0 0.00 0.00 0.00 89 1015.3
20210515070933 57 122 0.0 0.0 0.00 0.00 0.00 89 1015.2
20210515065209 57 123 0.0 0.0 0.00 0.00 0.00 88 1015.1
20210515064332 57 126 0.0 0.0 0.00 0.00 0.00 88 1015.2
20210515063305 57 126 0.0 0.0 0.00 0.00 0.00 87 1015.5
20210515062156 58 127 0.0 0.0 0.00 0.00 0.00 86 1015.5
20210515061350 58 126 0.0 0.0 0.00 0.00 0.00 85 1015.4
20210515060527 58 126 0.0 0.0 0.00 0.00 0.00 85 1015.4
20210515055125 58 128 0.0 0.0 0.00 0.00 0.00 84 1015.6
20210515054123 58 128 0.0 0.0 0.00 0.00 0.00 83 1015.8
20210515054011 59 127 0.0 0.0 0.00 0.00 0.00 83 1015.6
20210515053158 59 117 0.0 0.0 0.00 0.00 0.00 81 1015.7
20210515052319 59 115 0.0 0.0 0.00 0.00 0.00 80 1015.9
20210515052002 59 123 0.0 0.0 0.00 0.00 0.00 81 1016.0
20210515051325 59 123 0.0 0.0 0.00 0.00 0.00 79 1015.9
20210515050926 59 123 0.0 0.0 0.00 0.00 0.00 80 1015.8
20210515045248 60 138 0.0 0.0 0.00 0.00 0.00 78 1015.8
20210515044251 60 119 0.0 0.0 0.00 0.00 0.00 75 1015.7
20210515043305 60 119 0.0 0.0 0.00 0.00 0.00 76 1015.8
20210515042353 60 117 0.0 0.0 0.00 0.00 0.00 75 1016.0
20210515041459 61 117 0.0 0.0 0.00 0.00 0.00 73 1015.9
20210515040933 61 117 0.0 0.0 0.00 0.00 0.00 74 1016.0
20210515035151 61 117 0.0 0.0 0.00 0.00 0.00 72 1016.3
20210515035017 61 117 0.0 0.0 0.00 0.00 0.00 73 1016.1
20210515034230 61 117 0.0 0.0 0.00 0.00 0.00 71 1016.1
20210515033404 62 116 0.0 0.0 0.00 0.00 0.00 72 1016.2
20210515033250 62 116 0.0 0.0 0.00 0.00 0.00 72 1016.2
20210515031401 62 120 0.0 0.0 0.00 0.00 0.00 70 1016.2
20210515030504 62 120 0.0 0.0 0.00 0.00 0.00 70 1015.9
20210515025752 63 120 0.0 0.0 0.00 0.00 0.00 70 1016.1
20210515025254 63 120 0.0 0.0 0.00 0.00 0.00 68 1015.9
20210515024224 64 120 0.0 0.0 0.00 0.00 0.00 67 1015.9
20210515023224 64 120 0.0 0.0 0.00 0.00 0.00 65 1015.9
20210515022356 64 120 0.0 0.0 0.00 0.00 0.00 65 1015.8
20210515021240 65 118 1.0 2.0 0.00 0.00 0.00 63 1015.8
20210515020532 65 130 0.0 0.0 0.00 0.00 0.00 63 1015.7
20210515015225 65 130 0.0 0.0 0.00 0.00 0.00 63 1015.5
20210515015210 65 130 0.0 0.0 0.00 0.00 0.00 64 1015.7
20210515014129 65 130 0.0 0.0 0.00 0.00 0.00 64 1015.3
20210515013158 66 127 0.0 0.0 0.00 0.00 0.00 60 1015.2
20210515012359 66 119 0.0 0.0 0.00 0.00 0.00 58 1015.0
20210515011318 67 123 0.0 0.0 0.00 0.00 0.00 57 1015.0
20210515011020 67 124 0.0 0.0 0.00 0.00 0.00 58 1015.1
20210515010433 68 120 0.0 0.0 0.00 0.00 0.00 56 1015.0
20210515005917 68 121 0.0 0.0 0.00 0.00 0.00 56 1015.2
20210515005305 68 124 0.0 0.0 0.00 0.00 0.00 55 1015.1
20210515004327 69 121 0.0 0.0 0.00 0.00 0.00 55 1015.2
20210515003627 69 125 0.0 0.0 0.00 0.00 0.00 53 1014.8
20210515003307 69 120 0.0 0.0 0.00 0.00 0.00 52 1015.0
20210515002224 70 128 0.0 0.0 0.00 0.00 0.00 50 1014.9
20210515001524 71 129 0.0 0.0 0.00 0.00 0.00 47 1014.8
20210515001039 72 120 0.0 0.0 0.00 0.00 0.00 47 1014.8
20210514235254 73 113 1.0 2.0 0.00 0.00 0.00 42 1014.4
20210514234253 73 120 1.0 2.0 0.00 0.00 0.00 42 1014.5
20210514234130 73 120 1.0 2.0 0.00 0.00 0.00 42 1014.4
20210514233225 73 131 0.0 0.0 0.00 0.00 0.00 43 1014.4
20210514232122 73 110 2.0 2.0 0.00 0.00 0.00 43 1014.5
20210514231125 74 157 1.0 2.0 0.00 0.00 0.00 42 1014.8
20210514225201 74 63 2.0 2.0 0.00 0.00 0.00 40 1014.7
20210514225147 74 63 2.0 2.0 0.00 0.00 0.00 40 1014.7
20210514224327 75 56 2.0 3.0 0.00 0.00 0.00 40 1014.8
20210514223246 76 178 1.0 2.0 0.00 0.00 0.00 39 1014.9
20210514222243 76 134 1.0 2.0 0.00 0.00 0.00 40 1014.8
20210514221739 76 162 2.0 4.0 0.00 0.00 0.00 41 1014.7
20210514221231 76 99 2.0 2.0 0.00 0.00 0.00 39 1014.7
20210514220458 75 124 0.0 0.0 0.00 0.00 0.00 42 1014.9
20210514220042 74 112 1.0 2.0 0.00 0.00 0.00 43 1014.7
20210514215158 74 58 2.0 3.0 0.00 0.00 0.00 41 1014.8
20210514214623 77 110 2.0 4.0 0.00 0.00 0.00 41 1014.8
20210514214346 76 127 1.0 2.0 0.00 0.00 0.00 41 1015.1
20210514213145 78 115 2.0 3.0 0.00 0.00 0.00 40 1014.8
20210514212129 76 119 1.0 2.0 0.00 0.00 0.00 38 1014.8
20210514211144 75 103 2.0 2.0 0.00 0.00 0.00 40 1015.1
20210514210921 74 65 1.0 2.0 0.00 0.00 0.00 41 1015.0
20210514210420 74 120 2.0 2.0 0.00 0.00 0.00 42 1015.1
20210514205154 77 147 1.0 2.0 0.00 0.00 0.00 40 1014.9
20210514204303 76 162 3.0 4.0 0.00 0.00 0.00 40 1015.1
20210514203222 74 130 1.0 2.0 0.00 0.00 0.00 44 1015.5
20210514202158 77 84 0.0 0.0 0.00 0.00 0.00 42 1015.6
20210514201427 77 115 1.0 2.0 0.00 0.00 0.00 41 1015.5
20210514201307 78 124 2.0 3.0 0.00 0.00 0.00 38 1015.1
20210514200509 77 123 1.0 2.0 0.00 0.00 0.00 40 1015.4
20210514195142 73 115 0.0 0.0 0.00 0.00 0.00 48 1015.8
20210514194326 75 112 1.0 2.0 0.00 0.00 0.00 43 1015.8
20210514193605 76 117 0.0 0.0 0.00 0.00 0.00 41 1015.6
20210514193234 77 130 0.0 0.0 0.00 0.00 0.00 40 1015.9
20210514192353 75 141 2.0 3.0 0.00 0.00 0.00 40 1015.8
20210514192214 75 119 1.0 2.0 0.00 0.00 0.00 42 1016.1
20210514191354 77 178 3.0 5.0 0.00 0.00 0.00 39 1016.0
20210514190552 76 205 2.0 3.0 0.00 0.00 0.00 39 1016.1
20210514185401 75 137 1.0 2.0 0.00 0.00 0.00 44 1016.1
20210514184238 74 126 1.0 2.0 0.00 0.00 0.00 46 1016.4
20210514183242 75 105 1.0 2.0 0.00 0.00 0.00 47 1016.4
20210514182344 72 58 2.0 3.0 0.00 0.00 0.00 47 1016.5
20210514181842 73 70 2.0 2.0 0.00 0.00 0.00 45 1016.6
20210514181414 75 110 1.0 2.0 0.00 0.00 0.00 43 1016.4
20210514180947 76 129 0.0 0.0 0.00 0.00 0.00 44 1016.6
20210514175245 74 96 3.0 4.0 0.00 0.00 0.00 41 1016.7
20210514174221 74 86 2.0 3.0 0.00 0.00 0.00 43 1016.9
20210514173951 72 205 3.0 5.0 0.00 0.00 0.00 46 1017.0